Time;durP1;ratioP1;P1;durP2;ratioP2;P2;SDS_P1;SDS_P2;PMS_P1;PMS_P2;Temp;Humidity;BMP_temperature;BMP_pressure;BME280_temperature;BME280_humidity;BME280_pressure;Samples;Min_cycle;Max_cycle;Signal;HPM_P1;HPM_P2
2022/09/03 00:00:36;;;;;;;4.20;1.80;;;17.30;81.30;;;;;;3059543;19;20026;-66
2022/09/03 00:01:42;;;;;;;3.30;1.63;;;17.50;80.80;;;;;;3060609;19;20029;-66
2022/09/03 00:02:50;;;;;;;2.63;1.50;;;17.40;80.80;;;;;;3061488;19;20014;-65
2022/09/03 00:03:56;;;;;;;1.88;1.50;;;17.50;81.00;;;;;;3060078;19;20019;-66
2022/09/03 00:05:08;;;;;;;5.15;1.73;;;17.50;81.10;;;;;;3060730;19;20007;-65
2022/09/03 00:06:16;;;;;;;4.25;1.73;;;17.50;81.00;;;;;;3059591;19;20014;-66
2022/09/03 00:07:22;;;;;;;2.58;1.52;;;17.50;81.30;;;;;;3061155;19;20053;-66
2022/09/03 00:08:35;;;;;;;3.10;1.60;;;17.40;80.80;;;;;;3060535;19;20018;-66
2022/09/03 00:09:42;;;;;;;2.45;1.60;;;17.40;81.10;;;;;;3060417;19;20007;-66
2022/09/03 00:10:58;;;;;;;2.97;1.60;;;17.50;81.10;;;;;;3061344;19;20010;-66
2022/09/03 00:12:07;;;;;;;3.22;1.73;;;17.50;81.30;;;;;;3059809;19;20011;-66
2022/09/03 00:13:12;;;;;;;2.10;1.45;;;17.50;81.20;;;;;;3061950;19;20447;-66
2022/09/03 00:14:18;;;;;;;2.88;1.70;;;17.30;81.20;;;;;;3060128;19;20015;-66
2022/09/03 00:15:25;;;;;;;2.05;1.40;;;17.30;81.50;;;;;;3061619;19;20017;-66
2022/09/03 00:16:32;;;;;;;6.35;1.70;;;17.30;81.50;;;;;;3060680;19;20031;-66
2022/09/03 00:17:40;;;;;;;3.08;1.70;;;17.40;81.60;;;;;;3060749;19;20022;-66
2022/09/03 00:18:47;;;;;;;2.92;1.60;;;17.40;81.80;;;;;;3061022;19;20043;-66
2022/09/03 00:19:57;;;;;;;3.15;1.83;;;17.30;81.80;;;;;;3059186;19;20014;-66
2022/09/03 00:21:07;;;;;;;4.22;1.80;;;17.20;82.00;;;;;;3061497;19;20014;-66
2022/09/03 00:22:17;;;;;;;1.90;1.38;;;17.80;82.40;;;;;;3060751;19;20015;-66
2022/09/03 00:23:21;;;;;;;3.10;1.60;;;17.20;82.00;;;;;;3059729;19;20006;-66
2022/09/03 00:24:29;;;;;;;2.15;1.55;;;17.30;82.20;;;;;;3060798;19;20018;-66
2022/09/03 00:25:37;;;;;;;2.60;1.88;;;17.10;82.20;;;;;;3060212;19;20026;-66
2022/09/03 00:26:45;;;;;;;1.67;1.48;;;17.00;82.30;;;;;;3059442;19;20431;-67
2022/09/03 00:27:53;;;;;;;2.15;1.58;;;17.40;82.60;;;;;;3060114;19;20467;-66
2022/09/03 00:29:03;;;;;;;3.42;1.55;;;17.20;82.80;;;;;;3059231;19;20036;-67
2022/09/03 00:30:10;;;;;;;3.75;1.80;;;17.20;82.70;;;;;;3060938;19;20019;-66
2022/09/03 00:31:21;;;;;;;4.97;1.85;;;17.20;82.70;;;;;;3059889;19;20010;-66
2022/09/03 00:32:28;;;;;;;2.58;1.60;;;17.10;83.20;;;;;;3060128;19;20028;-66
2022/09/03 00:33:35;;;;;;;2.40;1.50;;;17.20;82.80;;;;;;3060662;19;20468;-66
2022/09/03 00:34:40;;;;;;;2.95;1.60;;;17.30;82.90;;;;;;3060709;19;20542;-66
2022/09/03 00:35:49;;;;;;;2.42;1.65;;;17.20;83.00;;;;;;3060435;19;20022;-66
2022/09/03 00:36:50;;;;;;;4.80;1.73;;;17.20;83.20;;;;;;3059664;19;20471;-65
2022/09/03 00:37:55;;;;;;;3.67;1.70;;;17.20;83.10;;;;;;3060629;19;20034;-65
2022/09/03 00:38:57;;;;;;;2.95;1.55;;;17.10;83.20;;;;;;3061133;19;20015;-65
2022/09/03 00:40:02;;;;;;;2.65;1.60;;;17.00;83.00;;;;;;3059834;19;20014;-66
2022/09/03 00:41:15;;;;;;;1.60;1.40;;;17.00;83.20;;;;;;3060320;19;20013;-66
2022/09/03 00:42:32;;;;;;;2.03;1.60;;;17.00;83.40;;;;;;3059894;19;20003;-66
2022/09/03 00:43:56;;;;;;;2.67;1.40;;;17.10;83.70;;;;;;3059472;19;20011;-66
2022/09/03 00:45:17;;;;;;;2.60;1.50;;;16.90;82.70;;;;;;3060827;19;20018;-66
2022/09/03 00:46:31;;;;;;;3.50;1.58;;;16.90;84.30;;;;;;3059619;19;20070;-66
2022/09/03 00:47:48;;;;;;;3.03;1.60;;;16.70;84.20;;;;;;3058841;19;20464;-66
2022/09/03 00:49:09;;;;;;;2.88;1.83;;;16.80;84.40;;;;;;3060614;19;20011;-65
2022/09/03 00:50:19;;;;;;;3.30;1.50;;;16.90;83.40;;;;;;3058855;19;20023;-66
2022/09/03 00:51:28;;;;;;;2.08;1.42;;;16.80;84.50;;;;;;3060812;19;20033;-66
2022/09/03 00:52:49;;;;;;;4.30;1.70;;;16.80;84.60;;;;;;3059128;19;20007;-66
2022/09/03 00:53:59;;;;;;;2.50;1.40;;;16.80;85.20;;;;;;3059276;19;20475;-66
2022/09/03 00:55:12;;;;;;;3.17;1.60;;;16.90;84.70;;;;;;3057789;19;20023;-66
2022/09/03 00:56:24;;;;;;;2.38;1.45;;;16.80;84.60;;;;;;3059345;19;20010;-66
2022/09/03 00:57:36;;;;;;;;;;;16.90;84.70;;;;;;3061642;19;20037;-66
2022/09/03 00:58:54;;;;;;;4.90;1.70;;;16.80;83.90;;;;;;3059926;19;20325;-66
2022/09/03 01:00:05;;;;;;;2.97;1.40;;;16.80;85.10;;;;;;3058337;19;20807;-66
2022/09/03 01:01:15;;;;;;;4.28;1.70;;;16.80;85.20;;;;;;3061027;19;20090;-65
2022/09/03 01:02:32;;;;;;;3.25;1.50;;;16.80;85.30;;;;;;3060392;19;20398;-66
2022/09/03 01:03:50;;;;;;;4.07;1.85;;;16.70;86.00;;;;;;3059707;19;20003;-66
2022/09/03 01:05:00;;;;;;;2.63;1.63;;;17.00;85.70;;;;;;3059741;19;20014;-66
2022/09/03 01:06:17;;;;;;;3.20;1.40;;;16.90;85.80;;;;;;3059454;19;20553;-65
2022/09/03 01:07:31;;;;;;;1.73;1.42;;;16.70;85.60;;;;;;3059471;19;20018;-66
2022/09/03 01:08:53;;;;;;;2.40;1.50;;;16.70;85.80;;;;;;3059141;19;20110;-66
2022/09/03 01:10:06;;;;;;;3.10;1.50;;;16.60;86.00;;;;;;3058193;19;20007;-66
2022/09/03 01:11:21;;;;;;;1.80;1.50;;;16.80;86.10;;;;;;3061318;19;20022;-66
2022/09/03 01:12:32;;;;;;;3.38;1.58;;;16.90;86.40;;;;;;3059389;19;20002;-66
2022/09/03 01:13:42;;;;;;;2.38;1.50;;;16.60;86.50;;;;;;3059649;19;20006;-66
2022/09/03 01:14:54;;;;;;;1.90;1.30;;;16.70;86.70;;;;;;3059000;19;20505;-66
2022/09/03 01:16:08;;;;;;;2.00;1.50;;;16.50;87.20;;;;;;3061068;19;20019;-66
2022/09/03 01:17:18;;;;;;;2.35;1.60;;;16.70;86.90;;;;;;3058942;19;20022;-66
2022/09/03 01:18:33;;;;;;;2.95;1.70;;;16.40;86.90;;;;;;3059628;19;20029;-66
2022/09/03 01:20:00;;;;;;;3.78;1.52;;;16.60;87.20;;;;;;3060018;19;20428;-66
2022/09/03 01:21:23;;;;;;;2.30;1.50;;;16.50;87.40;;;;;;3060600;19;20025;-66
2022/09/03 01:22:35;;;;;;;;;;;16.60;87.70;;;;;;3061634;19;20010;-66
2022/09/03 01:23:58;;;;;;;2.45;1.40;;;16.40;88.00;;;;;;3059296;19;19985;-66
2022/09/03 01:25:16;;;;;;;3.10;1.60;;;16.50;88.00;;;;;;3059586;19;20066;-66
2022/09/03 01:26:32;;;;;;;3.25;1.45;;;16.60;88.20;;;;;;3059516;19;20017;-66
2022/09/03 01:27:43;;;;;;;3.40;1.55;;;16.50;88.60;;;;;;3059040;19;20430;-66
2022/09/03 01:28:58;;;;;;;2.33;1.58;;;16.30;88.20;;;;;;3058843;19;20020;-66
2022/09/03 01:30:04;;;;;;;3.85;1.60;;;16.30;88.40;;;;;;3058657;19;20014;-66
2022/09/03 01:31:18;;;;;;;3.08;1.52;;;16.40;88.40;;;;;;3060050;19;20024;-65
2022/09/03 01:32:26;;;;;;;2.90;1.63;;;16.20;88.40;;;;;;3059227;19;20031;-66
2022/09/03 01:33:37;;;;;;;5.07;1.95;;;16.20;88.70;;;;;;3058826;19;20011;-66
2022/09/03 01:34:47;;;;;;;3.00;1.80;;;16.40;88.90;;;;;;3057688;19;20344;-65
2022/09/03 01:35:55;;;;;;;3.08;1.80;;;16.20;88.90;;;;;;3058607;19;20010;-66
2022/09/03 01:37:14;;;;;;;2.70;1.83;;;16.40;89.10;;;;;;3059968;19;20361;-65
2022/09/03 01:38:28;;;;;;;3.75;1.80;;;16.50;89.70;;;;;;3059053;19;20018;-66
2022/09/03 01:39:46;;;;;;;2.85;1.60;;;16.40;90.00;;;;;;3059285;19;20557;-66
2022/09/03 01:42:12;;;;;;;2.92;2.05;;;16.30;90.00;;;;;;3059437;19;20031;-65
2022/09/03 01:42:33;;;;;;;3.00;1.75;;;16.20;90.20;;;;;;3059080;19;20022;-66
2022/09/03 01:43:43;;;;;;;2.75;1.60;;;16.00;90.00;;;;;;3060334;19;20010;-66
2022/09/03 01:45:20;;;;;;;2.33;1.77;;;16.30;90.20;;;;;;3059394;19;20018;-66
2022/09/03 01:46:25;;;;;;;3.10;1.67;;;16.00;89.90;;;;;;3058989;19;20014;-66
2022/09/03 01:47:48;;;;;;;3.38;1.85;;;17.20;90.60;;;;;;3058040;19;20018;-66
2022/09/03 01:49:03;;;;;;;3.47;1.95;;;16.10;90.40;;;;;;3058457;19;20350;-66
2022/09/03 01:50:10;;;;;;;4.13;1.73;;;16.00;90.40;;;;;;3058396;19;20039;-66
2022/09/03 01:51:22;;;;;;;3.78;1.75;;;16.10;90.50;;;;;;3059687;19;20073;-66
2022/09/03 01:52:32;;;;;;;2.33;1.52;;;16.20;90.70;;;;;;3057877;19;20393;-66
2022/09/03 01:54:02;;;;;;;3.45;1.85;;;16.20;90.70;;;;;;3059689;19;20479;-66
2022/09/03 01:55:14;;;;;;;2.10;1.70;;;16.10;90.80;;;;;;3058224;19;20014;-66
2022/09/03 01:56:33;;;;;;;2.75;1.67;;;16.10;90.90;;;;;;3058750;19;20085;-66
2022/09/03 01:57:48;;;;;;;3.10;1.60;;;15.90;91.10;;;;;;3058936;19;20073;-66
2022/09/03 01:59:00;;;;;;;2.67;1.85;;;16.00;91.30;;;;;;3058479;19;20014;-66
2022/09/03 02:00:05;;;;;;;2.25;1.63;;;16.00;91.20;;;;;;3058847;19;20007;-66
2022/09/03 02:01:19;;;;;;;2.33;1.65;;;16.00;91.20;;;;;;3059409;19;20016;-66
2022/09/03 02:02:23;;;;;;;5.40;1.73;;;15.80;91.40;;;;;;3058547;19;20345;-66
2022/09/03 02:03:34;;;;;;;4.68;2.08;;;16.00;91.50;;;;;;3059706;19;20018;-66
2022/09/03 02:04:36;;;;;;;1.93;1.73;;;15.90;91.90;;;;;;3059570;19;20030;-66
2022/09/03 02:05:42;;;;;;;4.95;1.83;;;15.80;91.60;;;;;;3058830;19;20011;-65
2022/09/03 02:06:45;;;;;;;2.67;1.70;;;15.90;91.70;;;;;;3059547;19;20047;-66
2022/09/03 02:07:51;;;;;;;1.95;1.75;;;16.00;91.80;;;;;;3058561;19;20016;-66
2022/09/03 02:08:53;;;;;;;2.75;1.90;;;15.90;91.90;;;;;;3058599;19;20484;-66
2022/09/03 02:09:57;;;;;;;2.10;1.70;;;15.80;92.00;;;;;;3059569;19;20382;-66
2022/09/03 02:11:00;;;;;;;3.53;1.80;;;16.00;92.30;;;;;;3058014;19;20010;-66
2022/09/03 02:12:10;;;;;;;3.35;1.75;;;15.90;92.10;;;;;;3058892;19;20019;-66
2022/09/03 02:13:15;;;;;;;;;;;15.80;92.20;;;;;;3058852;19;20010;-66
2022/09/03 02:14:19;;;;;;;;;;;15.80;92.40;;;;;;3059676;19;19915;-66
2022/09/03 02:15:24;;;;;;;2.78;1.80;;;15.80;92.70;;;;;;3057549;19;19929;-66
2022/09/03 02:16:34;;;;;;;2.88;1.60;;;15.70;92.50;;;;;;3058050;19;20074;-66
2022/09/03 02:17:36;;;;;;;2.20;1.52;;;15.70;92.60;;;;;;3058078;19;20034;-66
2022/09/03 02:18:44;;;;;;;;;;;15.80;92.70;;;;;;3060500;19;20015;-66
2022/09/03 02:19:46;;;;;;;;;;;15.70;93.00;;;;;;3059098;19;20240;-66
2022/09/03 02:20:50;;;;;;;;;;;15.70;93.10;;;;;;3060334;19;19926;-66
2022/09/03 02:21:52;;;;;;;;;;;15.60;93.20;;;;;;3060086;19;19919;-66
2022/09/03 02:22:57;;;;;;;;;;;15.60;93.40;;;;;;3060642;19;19919;-66
2022/09/03 02:23:59;;;;;;;;;;;15.40;93.40;;;;;;3060391;19;19907;-66
2022/09/03 02:25:03;;;;;;;;;;;16.30;93.80;;;;;;3059975;19;19997;-66
2022/09/03 02:26:05;;;;;;;;;;;15.40;93.60;;;;;;3059698;19;20300;-66
2022/09/03 02:27:09;;;;;;;;;;;15.50;94.00;;;;;;3059136;19;19914;-66
2022/09/03 02:28:12;;;;;;;;;;;15.40;94.10;;;;;;3058333;19;20245;-66
2022/09/03 02:29:17;;;;;;;;;;;15.40;94.10;;;;;;3059136;19;20260;-65
2022/09/03 02:30:18;;;;;;;;;;;15.50;94.30;;;;;;3058811;19;19923;-66
2022/09/03 02:31:22;;;;;;;;;;;15.40;94.30;;;;;;3057857;19;19914;-66
2022/09/03 02:32:26;;;;;;;;;;;15.50;94.50;;;;;;3060021;19;19923;-66
2022/09/03 02:33:30;;;;;;;;;;;15.30;94.50;;;;;;3059609;19;19932;-66
2022/09/03 02:34:31;;;;;;;;;;;15.40;94.70;;;;;;3059187;19;20301;-66
2022/09/03 02:35:35;;;;;;;;;;;15.30;94.90;;;;;;3057636;19;19922;-66
2022/09/03 02:36:38;;;;;;;;;;;15.40;94.90;;;;;;3059116;19;19939;-66
2022/09/03 02:37:42;;;;;;;;;;;15.30;95.00;;;;;;3059750;19;19923;-66
2022/09/03 02:38:43;;;;;;;;;;;15.40;95.20;;;;;;3058992;19;19924;-66
2022/09/03 02:39:47;;;;;;;;;;;15.20;95.20;;;;;;3059581;19;20359;-66
2022/09/03 02:40:49;;;;;;;;;;;15.30;95.20;;;;;;3060531;19;19931;-66
2022/09/03 02:41:53;;;;;;;;;;;15.30;95.40;;;;;;3059616;19;20404;-66
2022/09/03 02:42:54;;;;;;;;;;;15.60;95.50;;;;;;3058970;19;20279;-66
2022/09/03 02:44:00;;;;;;;;;;;15.20;95.40;;;;;;3059238;19;20264;-66
2022/09/03 02:45:07;;;;;;;;;;;15.20;95.60;;;;;;3059217;19;20333;-67
2022/09/03 02:46:14;;;;;;;;;;;15.20;95.60;;;;;;3057574;19;20292;-67
2022/09/03 02:47:16;;;;;;;;;;;15.20;95.70;;;;;;3059091;19;19922;-66
2022/09/03 02:48:24;;;;;;;;;;;15.20;95.70;;;;;;3058831;19;20293;-65
2022/09/03 02:49:26;;;;;;;;;;;15.30;95.90;;;;;;3059290;19;19918;-66
2022/09/03 02:50:30;;;;;;;;;;;15.20;96.00;;;;;;3059575;19;19923;-66
2022/09/03 02:51:32;;;;;;;;;;;15.20;96.10;;;;;;3058854;19;19919;-65
2022/09/03 02:52:36;;;;;;;;;;;15.10;96.10;;;;;;3058578;19;19926;-66
2022/09/03 02:53:38;;;;;;;;;;;15.20;96.10;;;;;;3059300;19;19922;-65
2022/09/03 02:54:43;;;;;;;;;;;15.10;96.10;;;;;;3057619;19;20349;-66
2022/09/03 02:55:44;;;;;;;;;;;15.20;96.30;;;;;;3056854;19;19919;-66
2022/09/03 02:56:48;;;;;;;;;;;15.20;96.40;;;;;;3058466;19;20290;-66
2022/09/03 02:57:49;;;;;;;;;;;15.20;96.30;;;;;;3058694;19;19911;-66
2022/09/03 02:58:53;;;;;;;;;;;15.10;96.30;;;;;;3058333;19;19987;-66
2022/09/03 02:59:54;;;;;;;;;;;15.10;96.40;;;;;;3058767;19;19918;-66
2022/09/03 03:00:57;;;;;;;;;;;15.10;96.50;;;;;;3058495;19;19918;-66
2022/09/03 03:01:58;;;;;;;;;;;15.00;96.40;;;;;;3059467;19;19947;-66
2022/09/03 03:03:02;;;;;;;;;;;15.00;96.60;;;;;;3057860;19;19923;-66
2022/09/03 03:04:06;;;;;;;;;;;15.00;96.70;;;;;;3058685;19;20264;-66
2022/09/03 03:05:10;;;;;;;;;;;15.20;96.90;;;;;;3058296;19;19949;-66
2022/09/03 03:06:12;;;;;;;;;;;15.00;96.80;;;;;;3058642;19;19915;-66
2022/09/03 03:07:16;;;;;;;;;;;14.90;96.80;;;;;;3058425;19;20693;-66
2022/09/03 03:08:20;;;;;;;;;;;15.10;96.90;;;;;;3058382;19;19915;-66
2022/09/03 03:09:23;;;;;;;;;;;15.00;97.00;;;;;;3060136;19;19926;-67
2022/09/03 03:10:25;;;;;;;;;;;15.00;97.40;;;;;;3058967;19;19918;-66
2022/09/03 03:11:29;;;;;;;;;;;15.00;97.10;;;;;;3058859;19;19919;-66
2022/09/03 03:12:30;;;;;;;;;;;15.00;97.20;;;;;;3059100;19;20348;-66
2022/09/03 03:13:34;;;;;;;;;;;15.00;97.30;;;;;;3058871;19;19921;-66
2022/09/03 03:14:35;;;;;;;;;;;15.10;97.30;;;;;;3059481;19;20273;-67
2022/09/03 03:15:38;;;;;;;;;;;15.00;97.40;;;;;;3058364;19;19982;-66
2022/09/03 03:16:39;;;;;;;;;;;14.90;97.30;;;;;;3058397;19;19922;-66
2022/09/03 03:17:43;;;;;;;;;;;15.00;97.50;;;;;;3058529;19;20305;-66
2022/09/03 03:18:45;;;;;;;;;;;14.90;97.40;;;;;;3058880;19;19987;-66
2022/09/03 03:19:51;;;;;;;;;;;14.90;97.50;;;;;;3057827;19;19926;-65
2022/09/03 03:20:52;;;;;;;;;;;14.90;97.70;;;;;;3059801;19;19914;-66
2022/09/03 03:21:56;;;;;;;;;;;15.00;97.70;;;;;;3058156;19;19915;-66
2022/09/03 03:22:57;;;;;;;;;;;14.90;97.60;;;;;;3059315;19;19915;-67
2022/09/03 03:24:02;;;;;;;;;;;16.10;98.10;;;;;;3059638;19;20352;-66
2022/09/03 03:25:04;;;;;;;;;;;15.70;98.20;;;;;;3060394;19;20368;-66
2022/09/03 03:26:09;;;;;;;;;;;15.00;97.90;;;;;;3059544;19;19919;-67
2022/09/03 03:27:12;;;;;;;;;;;15.20;98.00;;;;;;3058708;19;19919;-66
2022/09/03 03:28:17;;;;;;;;;;;14.90;97.90;;;;;;3058254;19;19918;-66
2022/09/03 03:29:19;;;;;;;;;;;14.80;97.80;;;;;;3059111;19;20249;-66
2022/09/03 03:30:23;;;;;;;;;;;14.90;97.80;;;;;;3058622;19;19996;-66
2022/09/03 03:31:24;;;;;;;;;;;14.90;97.90;;;;;;3059519;19;20268;-67
2022/09/03 03:32:28;;;;;;;;;;;15.00;98.00;;;;;;3058345;19;20358;-66
2022/09/03 03:33:29;;;;;;;;;;;14.90;98.00;;;;;;3060115;19;19932;-66
2022/09/03 03:34:32;;;;;;;;;;;14.90;97.90;;;;;;3058798;19;20343;-66
2022/09/03 03:35:36;;;;;;;;;;;14.80;97.90;;;;;;3059112;19;19915;-66
2022/09/03 03:36:40;;;;;;;;;;;15.00;98.00;;;;;;3058767;19;20254;-66
2022/09/03 03:37:41;;;;;;;;;;;14.90;98.10;;;;;;3059901;19;19914;-66
2022/09/03 03:38:45;;;;;;;;;;;15.00;98.20;;;;;;3058934;19;19986;-66
2022/09/03 03:39:46;;;;;;;;;;;14.90;98.30;;;;;;3057234;19;20346;-66
2022/09/03 03:40:50;;;;;;;;;;;14.80;98.10;;;;;;3058091;19;19910;-69
2022/09/03 03:41:52;;;;;;;;;;;15.00;98.30;;;;;;3058161;19;19922;-67
2022/09/03 03:42:55;;;;;;;;;;;14.90;98.30;;;;;;3059249;19;19919;-66
2022/09/03 03:43:57;;;;;;;;;;;14.90;98.40;;;;;;3058277;19;19925;-66
2022/09/03 03:45:01;;;;;;;;;;;14.80;98.40;;;;;;3059329;19;19940;-66
2022/09/03 03:46:02;;;;;;;;;;;14.80;98.50;;;;;;3058200;19;19997;-66
2022/09/03 03:47:06;;;;;;;;;;;14.70;98.40;;;;;;3057855;19;19915;-66
2022/09/03 03:48:07;;;;;;;;;;;14.80;98.50;;;;;;3058343;19;19922;-65
2022/09/03 03:49:11;;;;;;;;;;;14.90;98.70;;;;;;3057175;19;19937;-65
2022/09/03 03:50:12;;;;;;;;;;;14.80;98.70;;;;;;3056863;19;19938;-66
2022/09/03 03:51:18;;;;;;;;;;;14.90;98.70;;;;;;3055873;19;19919;-66
2022/09/03 03:52:19;;;;;;;;;;;14.80;98.70;;;;;;3058359;19;19915;-65
2022/09/03 03:53:23;;;;;;;;;;;14.70;99.00;;;;;;3058309;19;19918;-65
2022/09/03 03:54:24;;;;;;;;;;;14.80;98.80;;;;;;3058494;19;19919;-66
2022/09/03 03:55:27;;;;;;;;;;;14.70;98.90;;;;;;3056918;19;19922;-65
2022/09/03 03:56:28;;;;;;;;;;;14.70;98.90;;;;;;3056855;19;19928;-66
2022/09/03 03:57:33;;;;;;;;;;;14.70;98.80;;;;;;3058029;19;20010;-65
2022/09/03 03:58:34;;;;;;;;;;;14.60;98.80;;;;;;3061048;19;19943;-65
2022/09/03 03:59:38;;;;;;;;;;;14.70;99.00;;;;;;3061358;19;19936;-65
2022/09/03 04:00:39;;;;;;;;;;;14.70;99.00;;;;;;3063273;19;19927;-66
2022/09/03 04:01:43;;;;;;;;;;;14.60;98.90;;;;;;3061606;19;20341;-65
2022/09/03 04:02:44;;;;;;;;;;;14.50;99.30;;;;;;3062219;19;19919;-66
2022/09/03 04:03:48;;;;;;;;;;;14.70;99.10;;;;;;3061767;19;19923;-66
2022/09/03 04:04:49;;;;;;;;;;;14.60;99.10;;;;;;3061432;19;19939;-66
2022/09/03 04:06:01;;;;;;;;;;;14.60;98.90;;;;;;3061133;19;19918;-66
2022/09/03 04:07:05;;;;;;;;;;;14.50;99.00;;;;;;3062243;19;20241;-66
2022/09/03 04:08:09;;;;;;;;;;;14.60;99.10;;;;;;3061071;19;19940;-66
2022/09/03 04:09:10;;;;;;;;;;;14.60;99.10;;;;;;3060476;19;19925;-67
2022/09/03 04:10:14;;;;;;;;;;;14.60;99.20;;;;;;3059611;19;19935;-67
2022/09/03 04:11:16;;;;;;;;;;;15.40;99.50;;;;;;3061172;19;19911;-66
2022/09/03 04:12:19;;;;;;;;;;;14.60;99.40;;;;;;3060474;19;19928;-66
2022/09/03 04:13:20;;;;;;;;;;;14.70;99.40;;;;;;3060729;19;19911;-66
2022/09/03 04:14:24;;;;;;;;;;;15.00;99.50;;;;;;3062121;19;19919;-66
2022/09/03 04:15:25;;;;;;;;;;;14.50;99.60;;;;;;3060731;19;19922;-66
2022/09/03 04:16:31;;;;;;;;;;;14.50;99.60;;;;;;3062011;19;19978;-66
2022/09/03 04:17:32;;;;;;;;;;;14.50;99.70;;;;;;3060991;19;19927;-66
2022/09/03 04:18:36;;;;;;;;;;;14.80;99.80;;;;;;3060646;19;20379;-66
2022/09/03 04:19:37;;;;;;;;;;;14.30;99.70;;;;;;3060756;19;19947;-66
2022/09/03 04:20:41;;;;;;;;;;;14.30;99.80;;;;;;3060532;19;19929;-65
2022/09/03 04:21:42;;;;;;;;;;;14.40;99.80;;;;;;3060865;19;19918;-65
2022/09/03 04:22:48;;;;;;;;;;;14.20;99.80;;;;;;3060551;19;19929;-66
2022/09/03 04:23:50;;;;;;;;;;;14.40;99.90;;;;;;3059920;19;19919;-66
2022/09/03 04:24:54;;;;;;;;;;;14.30;99.90;;;;;;3061080;19;19919;-66
2022/09/03 04:25:55;;;;;;;;;;;14.40;99.90;;;;;;3060851;19;19911;-66
2022/09/03 04:26:59;;;;;;;;;;;14.30;99.90;;;;;;3061316;19;19929;-66
2022/09/03 04:28:02;;;;;;;;;;;14.30;99.90;;;;;;3061744;19;20253;-66
2022/09/03 04:29:07;;;;;;;;;;;14.30;99.90;;;;;;3060602;19;20376;-66
2022/09/03 04:30:08;;;;;;;;;;;14.30;99.90;;;;;;3059301;19;20292;-66
2022/09/03 04:31:13;;;;;;;;;;;14.30;99.80;;;;;;3062007;19;19974;-66
2022/09/03 04:33:34;;;;;;;;;;;14.40;99.90;;;;;;3060602;19;20329;-66
2022/09/03 04:34:35;;;;;;;;;;;14.30;99.90;;;;;;3059697;19;20357;-66
2022/09/03 04:35:39;;;;;;;;;;;14.20;99.90;;;;;;3060577;19;20001;-66
2022/09/03 04:36:40;;;;;;;;;;;14.30;99.90;;;;;;3060455;19;19929;-66
2022/09/03 04:37:44;;;;;;;;;;;14.30;99.90;;;;;;3060703;19;20348;-66
2022/09/03 04:38:51;;;;;;;;;;;14.30;99.90;;;;;;3060574;19;19922;-66
2022/09/03 04:39:53;;;;;;;;;;;14.20;99.90;;;;;;3060397;19;19919;-66
2022/09/03 04:40:56;;;;;;;;;;;14.20;99.90;;;;;;3060252;19;19974;-66
2022/09/03 04:41:58;;;;;;;;;;;14.20;99.90;;;;;;3060931;19;20390;-66
2022/09/03 04:43:02;;;;;;;;;;;14.40;99.90;;;;;;3061765;19;20038;-66
2022/09/03 04:44:03;;;;;;;;;;;14.30;99.90;;;;;;3060500;19;20341;-67
2022/09/03 04:45:07;;;;;;;;;;;14.20;99.90;;;;;;3061844;19;20384;-66
2022/09/03 04:46:09;;;;;;;;;;;14.40;99.90;;;;;;3060504;19;19914;-66
2022/09/03 04:47:14;;;;;;;;;;;14.30;99.90;;;;;;3060378;19;20238;-67
2022/09/03 04:48:15;;;;;;;;;;;14.20;99.90;;;;;;3060806;19;19922;-67
2022/09/03 04:49:19;;;;;;;;;;;14.20;99.90;;;;;;3059586;19;19955;-67
2022/09/03 04:50:20;;;;;;;;;;;14.20;99.90;;;;;;3060186;19;19978;-67
2022/09/03 04:51:26;;;;;;;;;;;14.20;99.90;;;;;;3061419;19;20337;-67
2022/09/03 04:52:28;;;;;;;;;;;14.10;99.90;;;;;;3060727;19;19922;-67
2022/09/03 04:53:32;;;;;;;;;;;14.20;99.90;;;;;;3059933;19;19910;-67
2022/09/03 04:54:38;;;;;;;;;;;14.30;99.90;;;;;;3058750;19;20364;-67
2022/09/03 04:55:39;;;;;;;;;;;14.20;99.90;;;;;;3061317;19;20299;-67
2022/09/03 04:56:43;;;;;;;;;;;14.20;99.90;;;;;;3060528;19;19915;-65
2022/09/03 04:57:44;;;;;;;;;;;14.30;99.90;;;;;;3059246;19;19915;-65
2022/09/03 04:58:48;;;;;;;;;;;14.20;99.90;;;;;;3059653;19;19944;-66
2022/09/03 04:59:49;;;;;;;;;;;14.20;99.90;;;;;;3058747;19;20349;-65
2022/09/03 05:00:52;;;;;;;;;;;14.10;99.90;;;;;;3060756;19;20347;-66
2022/09/03 05:01:55;;;;;;;;;;;14.10;99.90;;;;;;3059599;19;19930;-65
2022/09/03 05:03:01;;;;;;;;;;;14.30;99.90;;;;;;3060461;19;19925;-66
2022/09/03 05:04:03;;;;;;;;;;;14.10;99.90;;;;;;3059687;19;20305;-66
2022/09/03 05:05:07;;;;;;;;;;;14.00;99.90;;;;;;3059870;19;19919;-65
2022/09/03 05:06:09;;;;;;;;;;;14.10;99.90;;;;;;3058624;19;20262;-66
2022/09/03 05:07:13;;;;;;;;;;;14.10;99.90;;;;;;3058553;19;20262;-66
2022/09/03 05:08:14;;;;;;;;;;;14.10;99.90;;;;;;3060961;19;19915;-65
2022/09/03 05:09:18;;;;;;;;;;;14.10;99.90;;;;;;3059520;19;20247;-65
2022/09/03 05:10:22;;;;;;;;;;;14.40;99.90;;;;;;3059190;19;19922;-65
2022/09/03 05:11:26;;;;;;;;;;;14.10;99.90;;;;;;3061822;19;19925;-65
2022/09/03 05:12:28;;;;;;;;;;;14.10;99.90;;;;;;3059659;19;19918;-66
2022/09/03 05:13:32;;;;;;;;;;;14.20;99.90;;;;;;3060527;19;19914;-66
2022/09/03 05:14:33;;;;;;;;;;;14.10;99.90;;;;;;3060563;19;20011;-66
2022/09/03 05:15:37;;;;;;;;;;;14.20;99.90;;;;;;3060277;19;19938;-66
2022/09/03 05:16:38;;;;;;;;;;;14.10;99.90;;;;;;3059341;19;19919;-65
2022/09/03 05:17:41;;;;;;;;;;;14.30;99.90;;;;;;3060211;19;19919;-65
2022/09/03 05:18:43;;;;;;;;;;;14.00;99.90;;;;;;3061486;19;19922;-65
2022/09/03 05:19:47;;;;;;;;;;;13.90;99.90;;;;;;3059834;19;19919;-66
2022/09/03 05:20:56;;;;;;;;;;;14.00;99.90;;;;;;3060728;19;19922;-66
2022/09/03 05:22:00;;;;;;;;;;;14.10;99.90;;;;;;3060165;19;20368;-66
2022/09/03 05:23:01;;;;;;;;;;;14.20;99.90;;;;;;3061083;19;19923;-66
2022/09/03 05:24:05;;;;;;;;;;;14.10;99.90;;;;;;3060250;19;19966;-66
2022/09/03 05:25:07;;;;;;;;;;;14.00;99.90;;;;;;3060642;19;19935;-66
2022/09/03 05:26:14;;;;;;;;;;;14.10;99.90;;;;;;3060113;19;19914;-66
2022/09/03 05:27:15;;;;;;;;;;;14.00;99.90;;;;;;3060059;19;19922;-66
2022/09/03 05:28:19;;;;;;;;;;;14.20;99.90;;;;;;3059937;19;20381;-66
2022/09/03 05:29:20;;;;;;;;;;;14.20;99.90;;;;;;3059453;19;19932;-66
2022/09/03 05:30:25;;;;;;;;;;;14.00;99.90;;;;;;3059939;19;20252;-67
2022/09/03 05:31:27;;;;;;;;;;;14.00;99.90;;;;;;3060093;19;19922;-66
2022/09/03 05:32:33;;;;;;;;;;;14.00;99.90;;;;;;3060342;19;19922;-66
2022/09/03 05:33:34;;;;;;;;;;;14.00;99.90;;;;;;3059838;19;20321;-66
2022/09/03 05:34:38;;;;;;;;;;;14.00;99.90;;;;;;3061520;19;19929;-66
2022/09/03 05:35:39;;;;;;;;;;;14.20;99.90;;;;;;3060578;19;19922;-66
2022/09/03 05:36:44;;;;;;;;;;;13.90;99.90;;;;;;3059179;19;19919;-66
2022/09/03 05:37:45;;;;;;;;;;;14.00;99.90;;;;;;3060745;19;19919;-66
2022/09/03 05:38:48;;;;;;;;;;;14.90;99.90;;;;;;3060089;19;19958;-66
2022/09/03 05:39:52;;;;;;;;;;;14.00;99.90;;;;;;3060229;19;19922;-66
2022/09/03 05:40:56;;;;;;;;;;;13.90;99.90;;;;;;3059866;19;20244;-66
2022/09/03 05:42:03;;;;;;;;;;;13.90;99.90;;;;;;3060840;19;19925;-66
2022/09/03 05:43:04;;;;;;;;;;;14.00;99.90;;;;;;3058432;19;19926;-66
2022/09/03 05:44:08;;;;;;;;;;;13.90;99.90;;;;;;3060896;19;19923;-66
2022/09/03 05:45:10;;;;;;;;;;;14.00;99.90;;;;;;3060020;19;19957;-66
2022/09/03 05:46:16;;;;;;;;;;;14.00;99.90;;;;;;3058620;19;19929;-66
2022/09/03 05:47:17;;;;;;;;;;;14.00;99.90;;;;;;3059334;19;20268;-67
2022/09/03 05:48:21;;;;;;;;;;;14.00;99.90;;;;;;3059771;19;19919;-66
2022/09/03 05:49:24;;;;;;;;;;;14.00;99.90;;;;;;3059301;19;20340;-66
2022/09/03 05:50:25;;;;;;;;;;;13.90;99.90;;;;;;3059753;19;19919;-66
2022/09/03 05:51:29;;;;;;;;;;;14.10;99.90;;;;;;3059384;19;19924;-66
2022/09/03 05:52:30;;;;;;;;;;;14.00;99.90;;;;;;3059499;19;19915;-67
2022/09/03 05:53:35;;;;;;;;;;;14.50;99.90;;;;;;3059619;19;19947;-66
2022/09/03 05:54:36;;;;;;;;;;;14.00;99.90;;;;;;3059299;19;20249;-67
2022/09/03 05:55:40;;;;;;;;;;;14.00;99.90;;;;;;3059462;19;19951;-68
2022/09/03 05:56:41;;;;;;;;;;;14.00;99.90;;;;;;3059695;19;20261;-67
2022/09/03 05:57:52;;;;;;;;;;;14.00;99.90;;;;;;3056937;19;19924;-68
2022/09/03 05:58:55;;;;;;;;;;;14.10;99.90;;;;;;3059405;19;19922;-68
2022/09/03 05:59:59;;;;;;;;;;;14.00;99.90;;;;;;3060174;19;19918;-67
2022/09/03 06:01:08;;;;;;;;;;;14.20;99.90;;;;;;3060025;19;19919;-67
2022/09/03 06:02:11;;;;;;;;;;;14.10;99.90;;;;;;3059030;19;20283;-68
2022/09/03 06:03:12;;;;;;;;;;;14.10;99.90;;;;;;3059771;19;19915;-67
2022/09/03 06:04:16;;;;;;;;;;;14.10;99.90;;;;;;3060112;19;19978;-67
2022/09/03 06:05:18;;;;;;;;;;;14.10;99.90;;;;;;3061162;19;19939;-67
2022/09/03 06:06:24;;;;;;;;;;;14.20;99.90;;;;;;3059338;19;19956;-67
2022/09/03 06:07:26;;;;;;;;;;;14.20;99.90;;;;;;3059371;19;19931;-68
2022/09/03 06:08:30;;;;;;;;;;;14.20;99.90;;;;;;3059390;19;19931;-67
2022/09/03 06:09:31;;;;;;;;;;;14.20;99.90;;;;;;3059334;19;20339;-67
2022/09/03 06:10:34;;;;;;;;;;;14.00;99.90;;;;;;3059026;19;19910;-67